sensor_id;sensor_type;location;lat;lon;timestamp;P1;durP1;ratioP1;P2;durP2;ratioP2
34505;SDS011;20748;42.632;23.198;2023-02-19T00:02:07;4.18;;;2.42;;
34505;SDS011;20748;42.632;23.198;2023-02-19T00:04:39;6.97;;;1.90;;
34505;SDS011;20748;42.632;23.198;2023-02-19T00:07:11;7.65;;;2.42;;
34505;SDS011;20748;42.632;23.198;2023-02-19T00:09:44;5.57;;;1.60;;
34505;SDS011;20748;42.632;23.198;2023-02-19T00:12:17;2.15;;;1.45;;
34505;SDS011;20748;42.632;23.198;2023-02-19T00:14:49;4.60;;;2.35;;
34505;SDS011;20748;42.632;23.198;2023-02-19T00:17:21;5.45;;;1.92;;
34505;SDS011;20748;42.632;23.198;2023-02-19T00:19:54;2.78;;;1.30;;
34505;SDS011;20748;42.632;23.198;2023-02-19T00:22:26;4.50;;;1.83;;
34505;SDS011;20748;42.632;23.198;2023-02-19T00:24:59;6.00;;;2.13;;
34505;SDS011;20748;42.632;23.198;2023-02-19T00:27:32;2.80;;;1.35;;
34505;SDS011;20748;42.632;23.198;2023-02-19T00:30:05;2.70;;;1.45;;
34505;SDS011;20748;42.632;23.198;2023-02-19T00:32:38;4.40;;;1.92;;
34505;SDS011;20748;42.632;23.198;2023-02-19T00:35:14;5.90;;;2.50;;
34505;SDS011;20748;42.632;23.198;2023-02-19T00:37:46;5.75;;;1.80;;
34505;SDS011;20748;42.632;23.198;2023-02-19T00:40:19;5.72;;;2.30;;
34505;SDS011;20748;42.632;23.198;2023-02-19T00:42:51;8.00;;;2.00;;
34505;SDS011;20748;42.632;23.198;2023-02-19T00:45:24;6.18;;;1.90;;
34505;SDS011;20748;42.632;23.198;2023-02-19T00:47:56;5.68;;;3.08;;
34505;SDS011;20748;42.632;23.198;2023-02-19T00:50:29;4.47;;;1.88;;
34505;SDS011;20748;42.632;23.198;2023-02-19T00:53:01;5.38;;;1.92;;
34505;SDS011;20748;42.632;23.198;2023-02-19T00:55:34;6.18;;;2.30;;
34505;SDS011;20748;42.632;23.198;2023-02-19T00:58:07;5.85;;;2.05;;
34505;SDS011;20748;42.632;23.198;2023-02-19T01:00:39;3.20;;;2.03;;
34505;SDS011;20748;42.632;23.198;2023-02-19T01:03:11;5.20;;;2.72;;
34505;SDS011;20748;42.632;23.198;2023-02-19T01:05:45;7.20;;;3.28;;
34505;SDS011;20748;42.632;23.198;2023-02-19T01:08:18;7.40;;;2.90;;
34505;SDS011;20748;42.632;23.198;2023-02-19T01:10:51;2.92;;;1.77;;
34505;SDS011;20748;42.632;23.198;2023-02-19T01:13:24;4.15;;;2.00;;
34505;SDS011;20748;42.632;23.198;2023-02-19T01:16:01;5.85;;;2.42;;
34505;SDS011;20748;42.632;23.198;2023-02-19T01:18:34;5.72;;;2.80;;
34505;SDS011;20748;42.632;23.198;2023-02-19T01:21:07;5.40;;;2.00;;
34505;SDS011;20748;42.632;23.198;2023-02-19T01:23:41;5.97;;;2.05;;
34505;SDS011;20748;42.632;23.198;2023-02-19T01:26:15;4.65;;;1.80;;
34505;SDS011;20748;42.632;23.198;2023-02-19T01:28:51;7.13;;;2.53;;
34505;SDS011;20748;42.632;23.198;2023-02-19T01:31:23;4.93;;;2.35;;
34505;SDS011;20748;42.632;23.198;2023-02-19T01:33:57;4.43;;;1.83;;
34505;SDS011;20748;42.632;23.198;2023-02-19T01:36:31;5.80;;;2.30;;
34505;SDS011;20748;42.632;23.198;2023-02-19T01:39:04;7.40;;;2.88;;
34505;SDS011;20748;42.632;23.198;2023-02-19T01:41:39;8.57;;;2.47;;
34505;SDS011;20748;42.632;23.198;2023-02-19T01:47:21;4.57;;;2.42;;
34505;SDS011;20748;42.632;23.198;2023-02-19T01:49:54;7.22;;;3.22;;
34505;SDS011;20748;42.632;23.198;2023-02-19T01:52:28;6.03;;;2.40;;
34505;SDS011;20748;42.632;23.198;2023-02-19T01:55:05;5.00;;;2.50;;
34505;SDS011;20748;42.632;23.198;2023-02-19T01:57:43;3.55;;;2.00;;
34505;SDS011;20748;42.632;23.198;2023-02-19T02:00:21;5.60;;;2.67;;
34505;SDS011;20748;42.632;23.198;2023-02-19T02:02:57;5.22;;;2.13;;
34505;SDS011;20748;42.632;23.198;2023-02-19T02:05:43;8.95;;;3.22;;
34505;SDS011;20748;42.632;23.198;2023-02-19T02:08:19;7.22;;;2.75;;
34505;SDS011;20748;42.632;23.198;2023-02-19T02:11:10;6.25;;;2.88;;
34505;SDS011;20748;42.632;23.198;2023-02-19T02:13:43;7.47;;;3.38;;
34505;SDS011;20748;42.632;23.198;2023-02-19T02:16:19;7.90;;;2.78;;
34505;SDS011;20748;42.632;23.198;2023-02-19T02:18:59;7.65;;;3.45;;
34505;SDS011;20748;42.632;23.198;2023-02-19T02:27:55;7.30;;;3.15;;
34505;SDS011;20748;42.632;23.198;2023-02-19T02:30:44;13.88;;;4.60;;
34505;SDS011;20748;42.632;23.198;2023-02-19T02:33:22;11.88;;;4.75;;
34505;SDS011;20748;42.632;23.198;2023-02-19T02:36:02;5.15;;;2.38;;
34505;SDS011;20748;42.632;23.198;2023-02-19T02:38:38;10.23;;;3.25;;
34505;SDS011;20748;42.632;23.198;2023-02-19T02:41:13;7.07;;;3.35;;
34505;SDS011;20748;42.632;23.198;2023-02-19T02:43:46;5.45;;;2.58;;
34505;SDS011;20748;42.632;23.198;2023-02-19T02:46:21;11.43;;;3.45;;
34505;SDS011;20748;42.632;23.198;2023-02-19T02:49:00;5.63;;;2.60;;
34505;SDS011;20748;42.632;23.198;2023-02-19T02:51:39;7.82;;;3.17;;
34505;SDS011;20748;42.632;23.198;2023-02-19T02:54:21;14.48;;;4.50;;
34505;SDS011;20748;42.632;23.198;2023-02-19T02:57:17;11.60;;;4.85;;
34505;SDS011;20748;42.632;23.198;2023-02-19T02:59:53;20.17;;;7.50;;
34505;SDS011;20748;42.632;23.198;2023-02-19T03:02:29;15.30;;;5.47;;
34505;SDS011;20748;42.632;23.198;2023-02-19T03:05:04;8.60;;;3.10;;
34505;SDS011;20748;42.632;23.198;2023-02-19T03:07:59;7.50;;;4.20;;
34505;SDS011;20748;42.632;23.198;2023-02-19T03:10:38;8.68;;;3.42;;
34505;SDS011;20748;42.632;23.198;2023-02-19T03:13:14;5.93;;;2.88;;
34505;SDS011;20748;42.632;23.198;2023-02-19T03:16:11;6.35;;;2.42;;
34505;SDS011;20748;42.632;23.198;2023-02-19T03:19:07;5.28;;;2.42;;
34505;SDS011;20748;42.632;23.198;2023-02-19T03:21:56;5.88;;;3.15;;
34505;SDS011;20748;42.632;23.198;2023-02-19T03:24:33;13.18;;;4.50;;
34505;SDS011;20748;42.632;23.198;2023-02-19T03:27:27;8.80;;;4.55;;
34505;SDS011;20748;42.632;23.198;2023-02-19T03:30:02;8.27;;;4.32;;
34505;SDS011;20748;42.632;23.198;2023-02-19T03:32:43;11.10;;;4.07;;
34505;SDS011;20748;42.632;23.198;2023-02-19T03:35:21;12.68;;;5.00;;
34505;SDS011;20748;42.632;23.198;2023-02-19T03:37:59;19.10;;;3.88;;
34505;SDS011;20748;42.632;23.198;2023-02-19T03:40:40;10.10;;;4.47;;
34505;SDS011;20748;42.632;23.198;2023-02-19T03:43:20;10.38;;;4.32;;
34505;SDS011;20748;42.632;23.198;2023-02-19T03:48:39;6.30;;;3.03;;
34505;SDS011;20748;42.632;23.198;2023-02-19T03:51:28;7.53;;;3.72;;
34505;SDS011;20748;42.632;23.198;2023-02-19T03:54:09;10.55;;;4.28;;
34505;SDS011;20748;42.632;23.198;2023-02-19T03:56:47;12.57;;;4.22;;
34505;SDS011;20748;42.632;23.198;2023-02-19T03:59:26;11.68;;;4.78;;
34505;SDS011;20748;42.632;23.198;2023-02-19T04:02:06;6.22;;;3.30;;
34505;SDS011;20748;42.632;23.198;2023-02-19T04:04:44;11.00;;;4.40;;
34505;SDS011;20748;42.632;23.198;2023-02-19T04:07:22;12.02;;;4.90;;
34505;SDS011;20748;42.632;23.198;2023-02-19T04:09:56;7.72;;;4.50;;
34505;SDS011;20748;42.632;23.198;2023-02-19T04:12:28;6.78;;;3.55;;
34505;SDS011;20748;42.632;23.198;2023-02-19T04:15:02;6.72;;;3.70;;
34505;SDS011;20748;42.632;23.198;2023-02-19T04:17:40;8.57;;;3.80;;
34505;SDS011;20748;42.632;23.198;2023-02-19T04:20:17;10.35;;;3.88;;
34505;SDS011;20748;42.632;23.198;2023-02-19T04:22:54;8.93;;;4.15;;
34505;SDS011;20748;42.632;23.198;2023-02-19T04:25:27;13.32;;;5.28;;
34505;SDS011;20748;42.632;23.198;2023-02-19T04:28:01;9.80;;;4.78;;
34505;SDS011;20748;42.632;23.198;2023-02-19T04:30:34;9.98;;;4.97;;
34505;SDS011;20748;42.632;23.198;2023-02-19T04:33:06;10.57;;;4.03;;
34505;SDS011;20748;42.632;23.198;2023-02-19T04:35:39;7.72;;;4.10;;
34505;SDS011;20748;42.632;23.198;2023-02-19T04:38:12;9.38;;;5.00;;
34505;SDS011;20748;42.632;23.198;2023-02-19T04:40:45;13.68;;;7.03;;
34505;SDS011;20748;42.632;23.198;2023-02-19T04:43:17;14.63;;;6.63;;
34505;SDS011;20748;42.632;23.198;2023-02-19T04:45:50;13.38;;;5.80;;
34505;SDS011;20748;42.632;23.198;2023-02-19T04:48:22;15.18;;;6.18;;
34505;SDS011;20748;42.632;23.198;2023-02-19T04:50:54;15.85;;;7.20;;
34505;SDS011;20748;42.632;23.198;2023-02-19T04:53:27;17.30;;;6.57;;
34505;SDS011;20748;42.632;23.198;2023-02-19T04:56:04;10.93;;;6.00;;
34505;SDS011;20748;42.632;23.198;2023-02-19T04:58:37;11.40;;;5.93;;
34505;SDS011;20748;42.632;23.198;2023-02-19T05:01:10;12.60;;;6.00;;
34505;SDS011;20748;42.632;23.198;2023-02-19T05:03:43;11.20;;;4.55;;
34505;SDS011;20748;42.632;23.198;2023-02-19T05:06:16;14.40;;;5.95;;
34505;SDS011;20748;42.632;23.198;2023-02-19T05:08:49;13.52;;;5.88;;
34505;SDS011;20748;42.632;23.198;2023-02-19T05:11:22;9.32;;;4.50;;
34505;SDS011;20748;42.632;23.198;2023-02-19T05:13:54;9.68;;;5.07;;
34505;SDS011;20748;42.632;23.198;2023-02-19T05:16:27;12.02;;;4.55;;
34505;SDS011;20748;42.632;23.198;2023-02-19T05:18:59;11.45;;;5.45;;
34505;SDS011;20748;42.632;23.198;2023-02-19T05:21:32;9.73;;;5.03;;
34505;SDS011;20748;42.632;23.198;2023-02-19T05:24:05;8.57;;;4.43;;
34505;SDS011;20748;42.632;23.198;2023-02-19T05:26:37;5.53;;;2.90;;
34505;SDS011;20748;42.632;23.198;2023-02-19T05:29:10;10.43;;;4.85;;
34505;SDS011;20748;42.632;23.198;2023-02-19T05:31:42;10.48;;;3.90;;
34505;SDS011;20748;42.632;23.198;2023-02-19T05:34:14;12.45;;;5.72;;
34505;SDS011;20748;42.632;23.198;2023-02-19T05:36:47;9.90;;;5.18;;
34505;SDS011;20748;42.632;23.198;2023-02-19T05:39:20;12.43;;;5.63;;
34505;SDS011;20748;42.632;23.198;2023-02-19T05:41:52;10.95;;;5.82;;
34505;SDS011;20748;42.632;23.198;2023-02-19T05:44:24;15.30;;;6.80;;
34505;SDS011;20748;42.632;23.198;2023-02-19T05:46:57;88.18;;;29.08;;
34505;SDS011;20748;42.632;23.198;2023-02-19T05:49:29;61.88;;;18.13;;
34505;SDS011;20748;42.632;23.198;2023-02-19T05:52:02;27.20;;;8.50;;
34505;SDS011;20748;42.632;23.198;2023-02-19T05:54:35;32.75;;;10.43;;
34505;SDS011;20748;42.632;23.198;2023-02-19T05:57:07;36.47;;;13.15;;
34505;SDS011;20748;42.632;23.198;2023-02-19T05:59:40;51.08;;;16.00;;
34505;SDS011;20748;42.632;23.198;2023-02-19T06:02:12;20.70;;;8.98;;
34505;SDS011;20748;42.632;23.198;2023-02-19T06:04:44;17.10;;;6.10;;
34505;SDS011;20748;42.632;23.198;2023-02-19T06:07:17;14.77;;;6.15;;
34505;SDS011;20748;42.632;23.198;2023-02-19T06:09:50;20.85;;;10.77;;
34505;SDS011;20748;42.632;23.198;2023-02-19T06:12:22;24.60;;;10.90;;
34505;SDS011;20748;42.632;23.198;2023-02-19T06:14:55;25.90;;;10.00;;
34505;SDS011;20748;42.632;23.198;2023-02-19T06:17:27;14.57;;;7.43;;
34505;SDS011;20748;42.632;23.198;2023-02-19T06:20:00;18.40;;;8.02;;
34505;SDS011;20748;42.632;23.198;2023-02-19T06:22:33;26.05;;;13.30;;
34505;SDS011;20748;42.632;23.198;2023-02-19T06:25:06;37.72;;;18.98;;
34505;SDS011;20748;42.632;23.198;2023-02-19T06:27:42;39.15;;;18.08;;
34505;SDS011;20748;42.632;23.198;2023-02-19T06:30:15;29.00;;;13.25;;
34505;SDS011;20748;42.632;23.198;2023-02-19T06:32:49;22.50;;;11.60;;
34505;SDS011;20748;42.632;23.198;2023-02-19T06:35:22;21.02;;;11.10;;
34505;SDS011;20748;42.632;23.198;2023-02-19T06:37:54;23.48;;;10.95;;
34505;SDS011;20748;42.632;23.198;2023-02-19T06:40:27;22.45;;;11.20;;
34505;SDS011;20748;42.632;23.198;2023-02-19T06:43:00;20.75;;;10.93;;
34505;SDS011;20748;42.632;23.198;2023-02-19T06:45:33;14.32;;;8.98;;
34505;SDS011;20748;42.632;23.198;2023-02-19T06:48:05;26.08;;;13.68;;
34505;SDS011;20748;42.632;23.198;2023-02-19T06:50:37;23.08;;;11.88;;
34505;SDS011;20748;42.632;23.198;2023-02-19T06:53:10;18.50;;;9.07;;
34505;SDS011;20748;42.632;23.198;2023-02-19T06:55:43;28.52;;;13.50;;
34505;SDS011;20748;42.632;23.198;2023-02-19T06:58:15;27.88;;;14.38;;
34505;SDS011;20748;42.632;23.198;2023-02-19T07:00:47;35.28;;;15.77;;
34505;SDS011;20748;42.632;23.198;2023-02-19T07:03:20;41.47;;;14.75;;
34505;SDS011;20748;42.632;23.198;2023-02-19T07:05:52;29.30;;;12.20;;
34505;SDS011;20748;42.632;23.198;2023-02-19T07:08:25;44.35;;;14.30;;
34505;SDS011;20748;42.632;23.198;2023-02-19T07:11:01;68.82;;;18.70;;
34505;SDS011;20748;42.632;23.198;2023-02-19T07:13:33;89.15;;;22.10;;
34505;SDS011;20748;42.632;23.198;2023-02-19T07:16:07;55.88;;;15.30;;
34505;SDS011;20748;42.632;23.198;2023-02-19T07:18:40;37.00;;;11.90;;
34505;SDS011;20748;42.632;23.198;2023-02-19T07:21:13;17.70;;;7.00;;
34505;SDS011;20748;42.632;23.198;2023-02-19T07:23:46;22.42;;;6.88;;
34505;SDS011;20748;42.632;23.198;2023-02-19T07:26:20;14.90;;;5.55;;
34505;SDS011;20748;42.632;23.198;2023-02-19T07:28:52;15.55;;;6.65;;
34505;SDS011;20748;42.632;23.198;2023-02-19T07:31:25;18.45;;;7.00;;
34505;SDS011;20748;42.632;23.198;2023-02-19T07:33:57;38.25;;;15.02;;
34505;SDS011;20748;42.632;23.198;2023-02-19T07:36:30;26.30;;;9.13;;
34505;SDS011;20748;42.632;23.198;2023-02-19T07:39:02;11.27;;;6.35;;
34505;SDS011;20748;42.632;23.198;2023-02-19T07:41:35;15.82;;;8.65;;
34505;SDS011;20748;42.632;23.198;2023-02-19T07:44:08;8.82;;;3.63;;
34505;SDS011;20748;42.632;23.198;2023-02-19T07:46:43;11.90;;;5.07;;
34505;SDS011;20748;42.632;23.198;2023-02-19T07:49:16;24.23;;;9.15;;
34505;SDS011;20748;42.632;23.198;2023-02-19T07:51:48;27.05;;;9.23;;
34505;SDS011;20748;42.632;23.198;2023-02-19T07:54:21;13.98;;;6.00;;
34505;SDS011;20748;42.632;23.198;2023-02-19T07:56:54;11.00;;;3.53;;
34505;SDS011;20748;42.632;23.198;2023-02-19T07:59:26;8.35;;;3.33;;
34505;SDS011;20748;42.632;23.198;2023-02-19T08:01:59;7.82;;;4.60;;
34505;SDS011;20748;42.632;23.198;2023-02-19T08:04:49;15.93;;;7.03;;
34505;SDS011;20748;42.632;23.198;2023-02-19T08:07:21;10.02;;;2.58;;
34505;SDS011;20748;42.632;23.198;2023-02-19T08:09:54;9.05;;;3.90;;
34505;SDS011;20748;42.632;23.198;2023-02-19T08:12:56;8.00;;;3.58;;
34505;SDS011;20748;42.632;23.198;2023-02-19T08:15:51;3.40;;;2.15;;
34505;SDS011;20748;42.632;23.198;2023-02-19T08:18:31;5.60;;;2.38;;
34505;SDS011;20748;42.632;23.198;2023-02-19T08:21:04;8.10;;;3.22;;
34505;SDS011;20748;42.632;23.198;2023-02-19T08:23:37;4.95;;;2.42;;
34505;SDS011;20748;42.632;23.198;2023-02-19T08:26:10;4.78;;;2.60;;
34505;SDS011;20748;42.632;23.198;2023-02-19T08:28:43;8.05;;;3.42;;
34505;SDS011;20748;42.632;23.198;2023-02-19T08:31:15;6.60;;;2.72;;
34505;SDS011;20748;42.632;23.198;2023-02-19T08:33:48;4.70;;;2.50;;
34505;SDS011;20748;42.632;23.198;2023-02-19T08:36:20;4.00;;;2.20;;
34505;SDS011;20748;42.632;23.198;2023-02-19T08:38:53;4.07;;;2.47;;
34505;SDS011;20748;42.632;23.198;2023-02-19T08:41:25;3.95;;;2.10;;
34505;SDS011;20748;42.632;23.198;2023-02-19T08:43:59;4.50;;;2.45;;
34505;SDS011;20748;42.632;23.198;2023-02-19T08:46:32;3.65;;;1.70;;
34505;SDS011;20748;42.632;23.198;2023-02-19T08:49:05;6.35;;;3.47;;
34505;SDS011;20748;42.632;23.198;2023-02-19T08:51:38;4.43;;;2.00;;
34505;SDS011;20748;42.632;23.198;2023-02-19T08:54:10;5.15;;;2.47;;
34505;SDS011;20748;42.632;23.198;2023-02-19T08:56:42;7.15;;;3.13;;
34505;SDS011;20748;42.632;23.198;2023-02-19T08:59:15;4.80;;;2.33;;
34505;SDS011;20748;42.632;23.198;2023-02-19T09:01:47;7.70;;;3.58;;
34505;SDS011;20748;42.632;23.198;2023-02-19T09:04:20;8.30;;;3.15;;
34505;SDS011;20748;42.632;23.198;2023-02-19T09:06:52;8.10;;;3.95;;
34505;SDS011;20748;42.632;23.198;2023-02-19T09:09:25;9.38;;;4.03;;
34505;SDS011;20748;42.632;23.198;2023-02-19T09:11:57;4.93;;;2.63;;
34505;SDS011;20748;42.632;23.198;2023-02-19T09:14:38;4.93;;;2.42;;
34505;SDS011;20748;42.632;23.198;2023-02-19T09:17:11;8.88;;;2.42;;
34505;SDS011;20748;42.632;23.198;2023-02-19T09:19:43;7.60;;;2.92;;
34505;SDS011;20748;42.632;23.198;2023-02-19T09:22:15;4.28;;;2.85;;
34505;SDS011;20748;42.632;23.198;2023-02-19T09:24:48;7.43;;;3.08;;
34505;SDS011;20748;42.632;23.198;2023-02-19T09:27:20;7.30;;;2.53;;
34505;SDS011;20748;42.632;23.198;2023-02-19T09:29:53;5.03;;;2.63;;
34505;SDS011;20748;42.632;23.198;2023-02-19T09:32:26;5.38;;;2.70;;
34505;SDS011;20748;42.632;23.198;2023-02-19T09:35:01;9.25;;;2.83;;
34505;SDS011;20748;42.632;23.198;2023-02-19T09:37:33;5.13;;;2.30;;
34505;SDS011;20748;42.632;23.198;2023-02-19T09:40:06;5.15;;;2.72;;
34505;SDS011;20748;42.632;23.198;2023-02-19T09:42:40;7.70;;;2.92;;
34505;SDS011;20748;42.632;23.198;2023-02-19T09:45:16;5.45;;;2.63;;
34505;SDS011;20748;42.632;23.198;2023-02-19T09:47:53;6.78;;;2.58;;
34505;SDS011;20748;42.632;23.198;2023-02-19T09:50:30;5.95;;;2.33;;
34505;SDS011;20748;42.632;23.198;2023-02-19T09:53:09;6.50;;;2.60;;
34505;SDS011;20748;42.632;23.198;2023-02-19T09:55:46;7.40;;;2.72;;
34505;SDS011;20748;42.632;23.198;2023-02-19T09:58:21;6.88;;;3.50;;
34505;SDS011;20748;42.632;23.198;2023-02-19T10:00:59;4.25;;;1.98;;
34505;SDS011;20748;42.632;23.198;2023-02-19T10:03:33;8.98;;;4.07;;
34505;SDS011;20748;42.632;23.198;2023-02-19T10:06:13;8.68;;;2.67;;
34505;SDS011;20748;42.632;23.198;2023-02-19T10:08:51;4.80;;;2.45;;
34505;SDS011;20748;42.632;23.198;2023-02-19T10:11:26;7.35;;;2.72;;
34505;SDS011;20748;42.632;23.198;2023-02-19T10:14:01;6.85;;;2.95;;
34505;SDS011;20748;42.632;23.198;2023-02-19T10:16:40;4.18;;;2.83;;
34505;SDS011;20748;42.632;23.198;2023-02-19T10:19:15;4.43;;;1.83;;
34505;SDS011;20748;42.632;23.198;2023-02-19T10:21:48;2.95;;;1.65;;
34505;SDS011;20748;42.632;23.198;2023-02-19T10:24:22;3.85;;;2.05;;
34505;SDS011;20748;42.632;23.198;2023-02-19T10:26:57;6.82;;;2.40;;
34505;SDS011;20748;42.632;23.198;2023-02-19T10:29:30;5.55;;;2.83;;
34505;SDS011;20748;42.632;23.198;2023-02-19T10:32:13;3.22;;;1.75;;
34505;SDS011;20748;42.632;23.198;2023-02-19T10:35:09;5.90;;;2.35;;
34505;SDS011;20748;42.632;23.198;2023-02-19T10:37:44;5.93;;;2.33;;
34505;SDS011;20748;42.632;23.198;2023-02-19T10:40:20;5.50;;;2.90;;
34505;SDS011;20748;42.632;23.198;2023-02-19T10:42:55;4.80;;;2.50;;
34505;SDS011;20748;42.632;23.198;2023-02-19T10:45:31;3.53;;;1.55;;
34505;SDS011;20748;42.632;23.198;2023-02-19T10:48:21;2.95;;;1.45;;
34505;SDS011;20748;42.632;23.198;2023-02-19T10:50:56;2.88;;;1.17;;
34505;SDS011;20748;42.632;23.198;2023-02-19T10:53:38;3.10;;;1.67;;
34505;SDS011;20748;42.632;23.198;2023-02-19T10:56:15;4.80;;;2.10;;
34505;SDS011;20748;42.632;23.198;2023-02-19T10:58:54;5.63;;;1.95;;
34505;SDS011;20748;42.632;23.198;2023-02-19T11:04:27;3.58;;;2.08;;
34505;SDS011;20748;42.632;23.198;2023-02-19T11:07:07;5.38;;;1.58;;
34505;SDS011;20748;42.632;23.198;2023-02-19T11:09:41;2.63;;;1.50;;
34505;SDS011;20748;42.632;23.198;2023-02-19T11:12:23;2.65;;;1.38;;
34505;SDS011;20748;42.632;23.198;2023-02-19T11:14:58;2.90;;;1.33;;
34505;SDS011;20748;42.632;23.198;2023-02-19T11:17:43;4.40;;;1.58;;
34505;SDS011;20748;42.632;23.198;2023-02-19T11:20:17;6.20;;;2.10;;
34505;SDS011;20748;42.632;23.198;2023-02-19T11:22:49;3.78;;;1.60;;
34505;SDS011;20748;42.632;23.198;2023-02-19T11:25:22;3.00;;;1.27;;
34505;SDS011;20748;42.632;23.198;2023-02-19T11:27:57;1.70;;;1.08;;
34505;SDS011;20748;42.632;23.198;2023-02-19T11:30:36;3.78;;;1.38;;
34505;SDS011;20748;42.632;23.198;2023-02-19T11:33:17;2.63;;;1.20;;
34505;SDS011;20748;42.632;23.198;2023-02-19T11:35:56;1.95;;;1.20;;
34505;SDS011;20748;42.632;23.198;2023-02-19T11:38:48;1.63;;;1.10;;
34505;SDS011;20748;42.632;23.198;2023-02-19T11:41:23;2.88;;;1.55;;
34505;SDS011;20748;42.632;23.198;2023-02-19T11:44:11;4.05;;;1.63;;
34505;SDS011;20748;42.632;23.198;2023-02-19T11:46:58;4.88;;;2.28;;
34505;SDS011;20748;42.632;23.198;2023-02-19T11:49:46;5.25;;;2.28;;
34505;SDS011;20748;42.632;23.198;2023-02-19T11:52:30;4.68;;;2.22;;
34505;SDS011;20748;42.632;23.198;2023-02-19T11:55:12;3.40;;;2.00;;
34505;SDS011;20748;42.632;23.198;2023-02-19T11:57:52;3.33;;;1.20;;
34505;SDS011;20748;42.632;23.198;2023-02-19T12:00:39;3.83;;;1.88;;
34505;SDS011;20748;42.632;23.198;2023-02-19T12:03:30;5.20;;;2.47;;
34505;SDS011;20748;42.632;23.198;2023-02-19T12:06:29;4.47;;;1.95;;
34505;SDS011;20748;42.632;23.198;2023-02-19T12:09:12;4.13;;;2.05;;
34505;SDS011;20748;42.632;23.198;2023-02-19T12:12:01;6.88;;;2.72;;
34505;SDS011;20748;42.632;23.198;2023-02-19T12:18:13;3.40;;;2.05;;
34505;SDS011;20748;42.632;23.198;2023-02-19T12:21:33;3.25;;;1.70;;
34505;SDS011;20748;42.632;23.198;2023-02-19T12:27:25;4.40;;;2.00;;
34505;SDS011;20748;42.632;23.198;2023-02-19T12:30:15;5.65;;;2.13;;
34505;SDS011;20748;42.632;23.198;2023-02-19T12:33:00;9.35;;;2.85;;
34505;SDS011;20748;42.632;23.198;2023-02-19T12:35:55;4.15;;;1.92;;
34505;SDS011;20748;42.632;23.198;2023-02-19T12:38:38;4.97;;;3.28;;
34505;SDS011;20748;42.632;23.198;2023-02-19T12:41:19;4.13;;;2.00;;
34505;SDS011;20748;42.632;23.198;2023-02-19T12:44:01;4.82;;;2.20;;
34505;SDS011;20748;42.632;23.198;2023-02-19T12:46:40;5.43;;;2.47;;
34505;SDS011;20748;42.632;23.198;2023-02-19T12:49:18;4.20;;;2.10;;
34505;SDS011;20748;42.632;23.198;2023-02-19T12:51:57;4.97;;;2.22;;
34505;SDS011;20748;42.632;23.198;2023-02-19T12:54:34;4.50;;;1.98;;
34505;SDS011;20748;42.632;23.198;2023-02-19T12:57:12;5.50;;;2.28;;
34505;SDS011;20748;42.632;23.198;2023-02-19T12:59:50;4.78;;;2.22;;
34505;SDS011;20748;42.632;23.198;2023-02-19T13:02:28;3.17;;;1.77;;
34505;SDS011;20748;42.632;23.198;2023-02-19T13:05:04;3.53;;;2.42;;
34505;SDS011;20748;42.632;23.198;2023-02-19T13:07:44;3.90;;;2.10;;
34505;SDS011;20748;42.632;23.198;2023-02-19T13:10:29;4.45;;;2.25;;
34505;SDS011;20748;42.632;23.198;2023-02-19T13:13:09;3.88;;;1.70;;
34505;SDS011;20748;42.632;23.198;2023-02-19T13:15:46;5.57;;;2.03;;
34505;SDS011;20748;42.632;23.198;2023-02-19T13:18:23;5.55;;;1.92;;
34505;SDS011;20748;42.632;23.198;2023-02-19T13:21:01;3.08;;;1.27;;
34505;SDS011;20748;42.632;23.198;2023-02-19T13:23:34;4.25;;;2.50;;
34505;SDS011;20748;42.632;23.198;2023-02-19T13:26:32;5.13;;;2.30;;
34505;SDS011;20748;42.632;23.198;2023-02-19T13:29:26;4.50;;;2.58;;
34505;SDS011;20748;42.632;23.198;2023-02-19T13:32:16;5.72;;;2.08;;
34505;SDS011;20748;42.632;23.198;2023-02-19T13:35:05;5.45;;;2.15;;
34505;SDS011;20748;42.632;23.198;2023-02-19T13:37:50;5.07;;;1.92;;
34505;SDS011;20748;42.632;23.198;2023-02-19T13:40:26;3.17;;;1.73;;
34505;SDS011;20748;42.632;23.198;2023-02-19T13:43:02;4.53;;;2.25;;
34505;SDS011;20748;42.632;23.198;2023-02-19T13:45:38;4.38;;;1.98;;
34505;SDS011;20748;42.632;23.198;2023-02-19T13:48:13;5.88;;;2.47;;
34505;SDS011;20748;42.632;23.198;2023-02-19T13:54:21;4.07;;;2.63;;
34505;SDS011;20748;42.632;23.198;2023-02-19T13:59:59;7.13;;;2.63;;
34505;SDS011;20748;42.632;23.198;2023-02-19T14:02:33;5.20;;;2.42;;
34505;SDS011;20748;42.632;23.198;2023-02-19T14:05:07;3.88;;;2.05;;
34505;SDS011;20748;42.632;23.198;2023-02-19T14:07:47;3.55;;;1.88;;
34505;SDS011;20748;42.632;23.198;2023-02-19T14:22:46;4.22;;;2.15;;
34505;SDS011;20748;42.632;23.198;2023-02-19T14:25:49;6.25;;;2.28;;
34505;SDS011;20748;42.632;23.198;2023-02-19T14:28:27;6.68;;;2.38;;
34505;SDS011;20748;42.632;23.198;2023-02-19T14:31:15;5.60;;;2.33;;
34505;SDS011;20748;42.632;23.198;2023-02-19T14:33:55;3.97;;;2.25;;
34505;SDS011;20748;42.632;23.198;2023-02-19T14:36:33;5.22;;;2.65;;
34505;SDS011;20748;42.632;23.198;2023-02-19T14:41:45;6.45;;;3.63;;
34505;SDS011;20748;42.632;23.198;2023-02-19T14:44:21;12.10;;;4.88;;
34505;SDS011;20748;42.632;23.198;2023-02-19T14:46:58;6.05;;;3.08;;
34505;SDS011;20748;42.632;23.198;2023-02-19T14:49:35;4.70;;;2.40;;
34505;SDS011;20748;42.632;23.198;2023-02-19T14:52:14;8.00;;;2.95;;
34505;SDS011;20748;42.632;23.198;2023-02-19T14:54:51;9.23;;;4.30;;
34505;SDS011;20748;42.632;23.198;2023-02-19T14:57:27;8.07;;;4.00;;
34505;SDS011;20748;42.632;23.198;2023-02-19T15:00:03;5.97;;;3.50;;
34505;SDS011;20748;42.632;23.198;2023-02-19T15:02:53;5.63;;;3.10;;
34505;SDS011;20748;42.632;23.198;2023-02-19T15:05:29;5.75;;;3.30;;
34505;SDS011;20748;42.632;23.198;2023-02-19T15:08:03;10.10;;;3.70;;
34505;SDS011;20748;42.632;23.198;2023-02-19T15:10:40;6.78;;;3.97;;
34505;SDS011;20748;42.632;23.198;2023-02-19T15:13:16;7.97;;;3.58;;
34505;SDS011;20748;42.632;23.198;2023-02-19T15:15:55;10.23;;;4.35;;
34505;SDS011;20748;42.632;23.198;2023-02-19T15:18:28;8.75;;;4.00;;
34505;SDS011;20748;42.632;23.198;2023-02-19T15:21:05;7.15;;;3.67;;
34505;SDS011;20748;42.632;23.198;2023-02-19T15:23:40;6.97;;;4.15;;
34505;SDS011;20748;42.632;23.198;2023-02-19T15:26:16;11.95;;;5.63;;
34505;SDS011;20748;42.632;23.198;2023-02-19T15:28:58;24.05;;;10.52;;
34505;SDS011;20748;42.632;23.198;2023-02-19T15:31:31;21.38;;;9.45;;
34505;SDS011;20748;42.632;23.198;2023-02-19T15:34:04;13.20;;;5.93;;
34505;SDS011;20748;42.632;23.198;2023-02-19T15:36:46;10.15;;;4.68;;
34505;SDS011;20748;42.632;23.198;2023-02-19T15:39:21;11.75;;;4.47;;
34505;SDS011;20748;42.632;23.198;2023-02-19T15:41:56;13.50;;;5.47;;
34505;SDS011;20748;42.632;23.198;2023-02-19T15:44:39;22.80;;;12.20;;
34505;SDS011;20748;42.632;23.198;2023-02-19T15:47:20;9.90;;;5.55;;
34505;SDS011;20748;42.632;23.198;2023-02-19T15:49:57;8.73;;;3.55;;
34505;SDS011;20748;42.632;23.198;2023-02-19T15:55:20;11.70;;;4.15;;
34505;SDS011;20748;42.632;23.198;2023-02-19T15:58:00;8.98;;;4.55;;
34505;SDS011;20748;42.632;23.198;2023-02-19T16:00:37;4.38;;;2.20;;
34505;SDS011;20748;42.632;23.198;2023-02-19T16:03:15;9.25;;;4.18;;
34505;SDS011;20748;42.632;23.198;2023-02-19T16:05:59;17.30;;;8.35;;
34505;SDS011;20748;42.632;23.198;2023-02-19T16:08:33;14.98;;;7.70;;
34505;SDS011;20748;42.632;23.198;2023-02-19T16:11:24;22.27;;;10.32;;